sensor_id;sensor_type;location;lat;lon;timestamp;temperature;humidity
76168;DHT22;64927;48.214;16.378;2023-02-28T00:01:07;3.10;54.10
76168;DHT22;64927;48.214;16.378;2023-02-28T00:03:32;3.30;53.90
76168;DHT22;64927;48.214;16.378;2023-02-28T00:06:02;3.30;53.80
76168;DHT22;64927;48.214;16.378;2023-02-28T00:08:27;3.40;53.70
76168;DHT22;64927;48.214;16.378;2023-02-28T00:10:53;3.20;54.20
76168;DHT22;64927;48.214;16.378;2023-02-28T00:13:19;3.10;54.60
76168;DHT22;64927;48.214;16.378;2023-02-28T00:15:47;3.10;54.80
76168;DHT22;64927;48.214;16.378;2023-02-28T00:18:12;3.10;55.00
76168;DHT22;64927;48.214;16.378;2023-02-28T00:20:38;3.00;55.10
76168;DHT22;64927;48.214;16.378;2023-02-28T00:23:04;3.10;55.10
76168;DHT22;64927;48.214;16.378;2023-02-28T00:25:30;3.00;55.20
76168;DHT22;64927;48.214;16.378;2023-02-28T00:27:56;3.00;55.10
76168;DHT22;64927;48.214;16.378;2023-02-28T00:30:23;3.00;55.00
76168;DHT22;64927;48.214;16.378;2023-02-28T00:32:50;2.90;55.30
76168;DHT22;64927;48.214;16.378;2023-02-28T00:35:16;3.00;55.10
76168;DHT22;64927;48.214;16.378;2023-02-28T00:37:42;3.00;54.90
76168;DHT22;64927;48.214;16.378;2023-02-28T00:40:09;3.00;54.50
76168;DHT22;64927;48.214;16.378;2023-02-28T00:42:36;3.10;54.20
76168;DHT22;64927;48.214;16.378;2023-02-28T00:45:03;2.90;54.80
76168;DHT22;64927;48.214;16.378;2023-02-28T00:47:30;2.90;54.90
76168;DHT22;64927;48.214;16.378;2023-02-28T00:49:56;2.90;54.90
76168;DHT22;64927;48.214;16.378;2023-02-28T00:52:21;3.00;54.70
76168;DHT22;64927;48.214;16.378;2023-02-28T00:54:49;2.90;54.70
76168;DHT22;64927;48.214;16.378;2023-02-28T00:57:15;2.80;55.10
76168;DHT22;64927;48.214;16.378;2023-02-28T00:59:41;2.80;55.20
76168;DHT22;64927;48.214;16.378;2023-02-28T01:02:06;2.90;55.00
76168;DHT22;64927;48.214;16.378;2023-02-28T01:04:32;2.80;55.10
76168;DHT22;64927;48.214;16.378;2023-02-28T01:06:58;3.00;54.80
76168;DHT22;64927;48.214;16.378;2023-02-28T01:09:23;3.00;54.20
76168;DHT22;64927;48.214;16.378;2023-02-28T01:11:49;2.90;54.80
76168;DHT22;64927;48.214;16.378;2023-02-28T01:14:17;2.90;54.40
76168;DHT22;64927;48.214;16.378;2023-02-28T01:16:45;3.00;54.50
76168;DHT22;64927;48.214;16.378;2023-02-28T01:19:13;2.90;54.60
76168;DHT22;64927;48.214;16.378;2023-02-28T01:21:39;3.00;54.50
76168;DHT22;64927;48.214;16.378;2023-02-28T01:24:05;2.90;54.50
76168;DHT22;64927;48.214;16.378;2023-02-28T01:26:31;2.90;54.70
76168;DHT22;64927;48.214;16.378;2023-02-28T01:28:57;3.00;54.60
76168;DHT22;64927;48.214;16.378;2023-02-28T01:31:24;3.00;54.30
76168;DHT22;64927;48.214;16.378;2023-02-28T01:33:50;3.00;54.40
76168;DHT22;64927;48.214;16.378;2023-02-28T01:36:21;3.10;54.10
76168;DHT22;64927;48.214;16.378;2023-02-28T01:38:47;3.10;53.80
76168;DHT22;64927;48.214;16.378;2023-02-28T01:41:22;3.10;53.90
76168;DHT22;64927;48.214;16.378;2023-02-28T01:46:15;3.00;53.70
76168;DHT22;64927;48.214;16.378;2023-02-28T01:48:45;2.90;53.80
76168;DHT22;64927;48.214;16.378;2023-02-28T01:51:21;3.00;53.80
76168;DHT22;64927;48.214;16.378;2023-02-28T01:53:51;3.00;54.00
76168;DHT22;64927;48.214;16.378;2023-02-28T01:56:24;2.80;54.40
76168;DHT22;64927;48.214;16.378;2023-02-28T01:58:51;2.90;54.50
76168;DHT22;64927;48.214;16.378;2023-02-28T02:01:21;2.90;54.40
76168;DHT22;64927;48.214;16.378;2023-02-28T02:03:53;2.70;54.30
76168;DHT22;64927;48.214;16.378;2023-02-28T02:06:27;2.90;54.40
76168;DHT22;64927;48.214;16.378;2023-02-28T02:08:54;2.70;54.60
76168;DHT22;64927;48.214;16.378;2023-02-28T02:11:21;2.70;54.80
76168;DHT22;64927;48.214;16.378;2023-02-28T02:14:22;2.80;54.80
76168;DHT22;64927;48.214;16.378;2023-02-28T02:22:59;2.80;54.80
76168;DHT22;64927;48.214;16.378;2023-02-28T02:36:47;3.00;54.00
76168;DHT22;64927;48.214;16.378;2023-02-28T02:39:46;2.80;54.40
76168;DHT22;64927;48.214;16.378;2023-02-28T02:45:07;3.00;54.30
76168;DHT22;64927;48.214;16.378;2023-02-28T02:47:37;2.90;54.40
76168;DHT22;64927;48.214;16.378;2023-02-28T02:50:11;2.90;54.50
76168;DHT22;64927;48.214;16.378;2023-02-28T02:52:42;2.90;54.40
76168;DHT22;64927;48.214;16.378;2023-02-28T02:55:11;2.70;55.30
76168;DHT22;64927;48.214;16.378;2023-02-28T02:57:59;2.60;56.10
76168;DHT22;64927;48.214;16.378;2023-02-28T03:00:36;2.50;56.40
76168;DHT22;64927;48.214;16.378;2023-02-28T03:03:03;2.40;56.50
76168;DHT22;64927;48.214;16.378;2023-02-28T03:05:39;2.40;56.80
76168;DHT22;64927;48.214;16.378;2023-02-28T03:08:09;2.40;56.90
76168;DHT22;64927;48.214;16.378;2023-02-28T03:10:41;2.50;56.60
76168;DHT22;64927;48.214;16.378;2023-02-28T03:13:25;2.70;56.20
76168;DHT22;64927;48.214;16.378;2023-02-28T03:21:21;2.90;55.60
76168;DHT22;64927;48.214;16.378;2023-02-28T03:24:08;2.70;55.70
76168;DHT22;64927;48.214;16.378;2023-02-28T03:26:41;2.70;56.00
76168;DHT22;64927;48.214;16.378;2023-02-28T03:34:49;2.50;56.80
76168;DHT22;64927;48.214;16.378;2023-02-28T03:37:22;2.40;57.30
76168;DHT22;64927;48.214;16.378;2023-02-28T03:39:59;2.50;56.90
76168;DHT22;64927;48.214;16.378;2023-02-28T03:42:29;2.40;57.10
76168;DHT22;64927;48.214;16.378;2023-02-28T03:45:01;2.40;57.10
76168;DHT22;64927;48.214;16.378;2023-02-28T03:47:44;2.40;57.40
76168;DHT22;64927;48.214;16.378;2023-02-28T03:50:22;2.40;57.60
76168;DHT22;64927;48.214;16.378;2023-02-28T03:53:04;2.60;57.00
76168;DHT22;64927;48.214;16.378;2023-02-28T03:55:39;2.70;56.70
76168;DHT22;64927;48.214;16.378;2023-02-28T03:58:27;2.70;56.30
76168;DHT22;64927;48.214;16.378;2023-02-28T04:01:11;2.70;56.40
76168;DHT22;64927;48.214;16.378;2023-02-28T04:03:39;2.70;56.80
76168;DHT22;64927;48.214;16.378;2023-02-28T04:06:15;2.80;56.70
76168;DHT22;64927;48.214;16.378;2023-02-28T04:08:41;2.70;56.50
76168;DHT22;64927;48.214;16.378;2023-02-28T04:13:41;2.90;56.70
76168;DHT22;64927;48.214;16.378;2023-02-28T04:16:07;2.90;56.40
76168;DHT22;64927;48.214;16.378;2023-02-28T04:18:41;3.00;56.10
76168;DHT22;64927;48.214;16.378;2023-02-28T04:21:09;3.10;55.50
76168;DHT22;64927;48.214;16.378;2023-02-28T04:23:35;3.20;55.10
76168;DHT22;64927;48.214;16.378;2023-02-28T04:26:03;3.10;54.90
76168;DHT22;64927;48.214;16.378;2023-02-28T04:28:29;3.10;54.70
76168;DHT22;64927;48.214;16.378;2023-02-28T04:30:56;3.10;55.00
76168;DHT22;64927;48.214;16.378;2023-02-28T04:33:22;3.10;55.10
76168;DHT22;64927;48.214;16.378;2023-02-28T04:35:47;3.20;55.10
76168;DHT22;64927;48.214;16.378;2023-02-28T04:38:13;3.30;54.70
76168;DHT22;64927;48.214;16.378;2023-02-28T04:40:39;3.30;54.70
76168;DHT22;64927;48.214;16.378;2023-02-28T04:43:04;3.30;54.60
76168;DHT22;64927;48.214;16.378;2023-02-28T04:45:30;3.20;54.80
76168;DHT22;64927;48.214;16.378;2023-02-28T04:47:57;3.10;54.90
76168;DHT22;64927;48.214;16.378;2023-02-28T04:50:23;3.00;55.30
76168;DHT22;64927;48.214;16.378;2023-02-28T04:52:49;2.90;55.50
76168;DHT22;64927;48.214;16.378;2023-02-28T04:55:15;2.80;55.70
76168;DHT22;64927;48.214;16.378;2023-02-28T04:57:40;2.80;55.90
76168;DHT22;64927;48.214;16.378;2023-02-28T05:00:09;2.90;56.00
76168;DHT22;64927;48.214;16.378;2023-02-28T05:02:39;2.90;56.00
76168;DHT22;64927;48.214;16.378;2023-02-28T05:05:05;2.90;55.80
76168;DHT22;64927;48.214;16.378;2023-02-28T05:07:31;2.90;55.90
76168;DHT22;64927;48.214;16.378;2023-02-28T05:09:56;2.90;56.00
76168;DHT22;64927;48.214;16.378;2023-02-28T05:12:22;2.90;56.10
76168;DHT22;64927;48.214;16.378;2023-02-28T05:14:48;2.90;56.40
76168;DHT22;64927;48.214;16.378;2023-02-28T05:17:14;2.90;56.50
76168;DHT22;64927;48.214;16.378;2023-02-28T05:19:39;2.90;56.60
76168;DHT22;64927;48.214;16.378;2023-02-28T05:22:10;2.60;57.50
76168;DHT22;64927;48.214;16.378;2023-02-28T05:24:37;2.60;57.60
76168;DHT22;64927;48.214;16.378;2023-02-28T05:27:03;2.60;58.00
76168;DHT22;64927;48.214;16.378;2023-02-28T05:29:29;2.60;58.00
76168;DHT22;64927;48.214;16.378;2023-02-28T05:31:55;2.50;58.30
76168;DHT22;64927;48.214;16.378;2023-02-28T05:34:20;2.60;58.00
76168;DHT22;64927;48.214;16.378;2023-02-28T05:36:46;2.70;57.80
76168;DHT22;64927;48.214;16.378;2023-02-28T05:39:12;2.70;57.50
76168;DHT22;64927;48.214;16.378;2023-02-28T05:41:39;2.70;57.70
76168;DHT22;64927;48.214;16.378;2023-02-28T05:44:05;2.60;58.10
76168;DHT22;64927;48.214;16.378;2023-02-28T05:46:31;2.50;58.50
76168;DHT22;64927;48.214;16.378;2023-02-28T05:48:57;2.40;59.00
76168;DHT22;64927;48.214;16.378;2023-02-28T05:51:25;2.30;59.20
76168;DHT22;64927;48.214;16.378;2023-02-28T05:53:51;2.30;59.60
76168;DHT22;64927;48.214;16.378;2023-02-28T05:56:19;2.30;59.80
76168;DHT22;64927;48.214;16.378;2023-02-28T05:58:45;2.30;59.90
76168;DHT22;64927;48.214;16.378;2023-02-28T06:04:04;2.50;59.80
76168;DHT22;64927;48.214;16.378;2023-02-28T06:06:30;2.60;59.80
76168;DHT22;64927;48.214;16.378;2023-02-28T06:08:58;2.60;59.60
76168;DHT22;64927;48.214;16.378;2023-02-28T06:11:24;2.60;59.80
76168;DHT22;64927;48.214;16.378;2023-02-28T06:13:56;2.60;59.80
76168;DHT22;64927;48.214;16.378;2023-02-28T06:16:23;2.60;59.70
76168;DHT22;64927;48.214;16.378;2023-02-28T06:18:48;2.70;59.80
76168;DHT22;64927;48.214;16.378;2023-02-28T06:21:14;2.70;59.70
76168;DHT22;64927;48.214;16.378;2023-02-28T06:23:42;2.70;59.60
76168;DHT22;64927;48.214;16.378;2023-02-28T06:26:10;2.60;59.80
76168;DHT22;64927;48.214;16.378;2023-02-28T06:28:36;2.60;60.00
76168;DHT22;64927;48.214;16.378;2023-02-28T06:31:09;2.70;60.10
76168;DHT22;64927;48.214;16.378;2023-02-28T06:33:37;2.70;59.60
76168;DHT22;64927;48.214;16.378;2023-02-28T06:36:04;2.60;59.80
76168;DHT22;64927;48.214;16.378;2023-02-28T06:38:30;2.60;59.80
76168;DHT22;64927;48.214;16.378;2023-02-28T06:40:57;2.60;59.80
76168;DHT22;64927;48.214;16.378;2023-02-28T06:43:28;2.70;59.70
76168;DHT22;64927;48.214;16.378;2023-02-28T06:45:55;2.80;59.30
76168;DHT22;64927;48.214;16.378;2023-02-28T06:48:21;2.90;59.20
76168;DHT22;64927;48.214;16.378;2023-02-28T06:50:47;2.90;59.00
76168;DHT22;64927;48.214;16.378;2023-02-28T06:53:13;3.00;58.80
76168;DHT22;64927;48.214;16.378;2023-02-28T06:55:39;3.00;58.00
76168;DHT22;64927;48.214;16.378;2023-02-28T06:58:05;3.00;58.30
76168;DHT22;64927;48.214;16.378;2023-02-28T07:00:44;3.10;58.00
76168;DHT22;64927;48.214;16.378;2023-02-28T07:03:10;3.10;57.80
76168;DHT22;64927;48.214;16.378;2023-02-28T07:05:37;3.20;57.60
76168;DHT22;64927;48.214;16.378;2023-02-28T07:08:03;3.10;57.10
76168;DHT22;64927;48.214;16.378;2023-02-28T07:10:29;3.10;57.00
76168;DHT22;64927;48.214;16.378;2023-02-28T07:12:55;3.10;57.30
76168;DHT22;64927;48.214;16.378;2023-02-28T07:15:29;3.10;58.00
76168;DHT22;64927;48.214;16.378;2023-02-28T07:17:55;3.10;57.80
76168;DHT22;64927;48.214;16.378;2023-02-28T07:20:22;3.20;57.40
76168;DHT22;64927;48.214;16.378;2023-02-28T07:22:48;3.20;57.10
76168;DHT22;64927;48.214;16.378;2023-02-28T07:25:22;3.30;57.00
76168;DHT22;64927;48.214;16.378;2023-02-28T07:27:50;3.30;56.60
76168;DHT22;64927;48.214;16.378;2023-02-28T07:30:17;3.40;56.80
76168;DHT22;64927;48.214;16.378;2023-02-28T07:32:45;3.40;56.60
76168;DHT22;64927;48.214;16.378;2023-02-28T07:35:11;3.50;56.60
76168;DHT22;64927;48.214;16.378;2023-02-28T07:37:37;3.50;56.00
76168;DHT22;64927;48.214;16.378;2023-02-28T07:40:04;3.50;56.00
76168;DHT22;64927;48.214;16.378;2023-02-28T07:42:37;3.50;56.10
76168;DHT22;64927;48.214;16.378;2023-02-28T07:45:04;3.60;55.80
76168;DHT22;64927;48.214;16.378;2023-02-28T07:47:30;3.50;56.10
76168;DHT22;64927;48.214;16.378;2023-02-28T07:49:57;3.50;56.00
76168;DHT22;64927;48.214;16.378;2023-02-28T07:52:23;3.50;56.10
76168;DHT22;64927;48.214;16.378;2023-02-28T07:54:50;3.50;56.50
76168;DHT22;64927;48.214;16.378;2023-02-28T07:57:18;3.60;56.60
76168;DHT22;64927;48.214;16.378;2023-02-28T07:59:46;3.70;56.10
76168;DHT22;64927;48.214;16.378;2023-02-28T08:02:16;3.80;55.80
76168;DHT22;64927;48.214;16.378;2023-02-28T08:04:42;3.80;56.00
76168;DHT22;64927;48.214;16.378;2023-02-28T08:07:12;4.00;55.60
76168;DHT22;64927;48.214;16.378;2023-02-28T08:09:39;4.10;55.60
76168;DHT22;64927;48.214;16.378;2023-02-28T08:12:05;4.20;55.20
76168;DHT22;64927;48.214;16.378;2023-02-28T08:14:31;4.20;54.90
76168;DHT22;64927;48.214;16.378;2023-02-28T08:16:57;4.30;55.30
76168;DHT22;64927;48.214;16.378;2023-02-28T08:19:22;4.40;55.00
76168;DHT22;64927;48.214;16.378;2023-02-28T08:21:48;4.70;54.90
76168;DHT22;64927;48.214;16.378;2023-02-28T08:24:14;4.90;53.40
76168;DHT22;64927;48.214;16.378;2023-02-28T08:26:41;4.80;53.00
76168;DHT22;64927;48.214;16.378;2023-02-28T08:29:07;4.80;53.30
76168;DHT22;64927;48.214;16.378;2023-02-28T08:31:33;4.70;53.50
76168;DHT22;64927;48.214;16.378;2023-02-28T08:34:07;4.70;53.70
76168;DHT22;64927;48.214;16.378;2023-02-28T08:36:36;4.80;53.90
76168;DHT22;64927;48.214;16.378;2023-02-28T08:39:02;5.00;53.50
76168;DHT22;64927;48.214;16.378;2023-02-28T08:41:28;5.10;53.20
76168;DHT22;64927;48.214;16.378;2023-02-28T08:43:54;5.30;52.50
76168;DHT22;64927;48.214;16.378;2023-02-28T08:46:20;5.40;52.60
76168;DHT22;64927;48.214;16.378;2023-02-28T08:48:46;5.40;52.10
76168;DHT22;64927;48.214;16.378;2023-02-28T08:51:14;5.50;52.20
76168;DHT22;64927;48.214;16.378;2023-02-28T08:53:44;5.50;52.00
76168;DHT22;64927;48.214;16.378;2023-02-28T08:56:12;5.50;51.90
76168;DHT22;64927;48.214;16.378;2023-02-28T08:58:38;5.30;52.40
76168;DHT22;64927;48.214;16.378;2023-02-28T09:01:13;5.30;52.40
76168;DHT22;64927;48.214;16.378;2023-02-28T09:03:39;5.60;52.30
76168;DHT22;64927;48.214;16.378;2023-02-28T09:06:06;5.80;52.00
76168;DHT22;64927;48.214;16.378;2023-02-28T09:08:32;6.00;50.70
76168;DHT22;64927;48.214;16.378;2023-02-28T09:10:58;6.10;50.00
76168;DHT22;64927;48.214;16.378;2023-02-28T09:13:27;6.10;50.50
76168;DHT22;64927;48.214;16.378;2023-02-28T09:15:54;6.20;50.20
76168;DHT22;64927;48.214;16.378;2023-02-28T09:18:20;6.30;49.70
76168;DHT22;64927;48.214;16.378;2023-02-28T09:20:46;6.40;49.00
76168;DHT22;64927;48.214;16.378;2023-02-28T09:23:12;6.50;49.70
76168;DHT22;64927;48.214;16.378;2023-02-28T09:25:53;6.50;48.40
76168;DHT22;64927;48.214;16.378;2023-02-28T09:28:20;6.50;49.00
76168;DHT22;64927;48.214;16.378;2023-02-28T09:30:52;6.70;48.70
76168;DHT22;64927;48.214;16.378;2023-02-28T09:33:19;6.80;47.90
76168;DHT22;64927;48.214;16.378;2023-02-28T09:35:49;6.90;47.20
76168;DHT22;64927;48.214;16.378;2023-02-28T09:38:15;6.80;47.40
76168;DHT22;64927;48.214;16.378;2023-02-28T09:40:55;6.50;47.70
76168;DHT22;64927;48.214;16.378;2023-02-28T09:43:25;6.50;48.20
76168;DHT22;64927;48.214;16.378;2023-02-28T09:48:35;6.60;47.50
76168;DHT22;64927;48.214;16.378;2023-02-28T09:53:56;6.10;48.40
76168;DHT22;64927;48.214;16.378;2023-02-28T09:56:36;6.00;49.50
76168;DHT22;64927;48.214;16.378;2023-02-28T09:59:18;6.20;49.00
76168;DHT22;64927;48.214;16.378;2023-02-28T10:04:52;6.50;48.40
76168;DHT22;64927;48.214;16.378;2023-02-28T10:12:55;6.20;49.30
76168;DHT22;64927;48.214;16.378;2023-02-28T10:15:23;6.10;50.20
76168;DHT22;64927;48.214;16.378;2023-02-28T10:17:54;6.10;50.00
76168;DHT22;64927;48.214;16.378;2023-02-28T10:20:25;5.80;50.50
76168;DHT22;64927;48.214;16.378;2023-02-28T10:23:30;5.80;51.20
76168;DHT22;64927;48.214;16.378;2023-02-28T10:26:16;5.90;51.20
76168;DHT22;64927;48.214;16.378;2023-02-28T10:28:44;5.90;51.10
76168;DHT22;64927;48.214;16.378;2023-02-28T10:31:20;5.90;51.00
76168;DHT22;64927;48.214;16.378;2023-02-28T10:33:47;6.10;50.80
76168;DHT22;64927;48.214;16.378;2023-02-28T10:36:18;6.20;50.60
76168;DHT22;64927;48.214;16.378;2023-02-28T10:38:45;6.40;50.10
76168;DHT22;64927;48.214;16.378;2023-02-28T10:41:31;6.50;50.00
76168;DHT22;64927;48.214;16.378;2023-02-28T10:44:19;6.70;49.50
76168;DHT22;64927;48.214;16.378;2023-02-28T10:46:45;6.90;48.60
76168;DHT22;64927;48.214;16.378;2023-02-28T10:49:20;6.80;49.00
76168;DHT22;64927;48.214;16.378;2023-02-28T10:51:51;6.90;48.90
76168;DHT22;64927;48.214;16.378;2023-02-28T10:54:34;6.80;48.70
76168;DHT22;64927;48.214;16.378;2023-02-28T10:57:22;6.90;48.80
76168;DHT22;64927;48.214;16.378;2023-02-28T10:59:53;7.00;48.20
76168;DHT22;64927;48.214;16.378;2023-02-28T11:02:36;7.00;48.20
76168;DHT22;64927;48.214;16.378;2023-02-28T11:08:01;6.60;48.30
76168;DHT22;64927;48.214;16.378;2023-02-28T11:10:30;6.70;48.50
76168;DHT22;64927;48.214;16.378;2023-02-28T11:13:00;6.60;48.60
76168;DHT22;64927;48.214;16.378;2023-02-28T11:15:27;6.70;48.70
76168;DHT22;64927;48.214;16.378;2023-02-28T11:18:29;6.70;48.60
76168;DHT22;64927;48.214;16.378;2023-02-28T11:20:53;6.60;48.60
76168;DHT22;64927;48.214;16.378;2023-02-28T11:23:20;6.60;48.80
76168;DHT22;64927;48.214;16.378;2023-02-28T11:25:54;6.60;48.20
76168;DHT22;64927;48.214;16.378;2023-02-28T11:28:36;6.60;48.10
76168;DHT22;64927;48.214;16.378;2023-02-28T11:33:55;6.70;47.70
76168;DHT22;64927;48.214;16.378;2023-02-28T11:36:30;6.80;47.40
76168;DHT22;64927;48.214;16.378;2023-02-28T11:39:00;6.80;47.40
76168;DHT22;64927;48.214;16.378;2023-02-28T11:44:48;7.00;46.90
76168;DHT22;64927;48.214;16.378;2023-02-28T11:52:48;7.60;45.50
76168;DHT22;64927;48.214;16.378;2023-02-28T11:55:35;7.70;44.90
76168;DHT22;64927;48.214;16.378;2023-02-28T11:59:02;7.80;44.70
76168;DHT22;64927;48.214;16.378;2023-02-28T12:01:36;7.90;44.30
76168;DHT22;64927;48.214;16.378;2023-02-28T12:07:23;8.10;43.40
76168;DHT22;64927;48.214;16.378;2023-02-28T12:12:35;8.10;43.30
76168;DHT22;64927;48.214;16.378;2023-02-28T12:29:32;8.50;42.40
76168;DHT22;64927;48.214;16.378;2023-02-28T12:32:11;8.60;42.30
76168;DHT22;64927;48.214;16.378;2023-02-28T12:34:42;8.70;41.40
76168;DHT22;64927;48.214;16.378;2023-02-28T12:37:28;8.90;40.40
76168;DHT22;64927;48.214;16.378;2023-02-28T12:40:21;8.90;39.30
76168;DHT22;64927;48.214;16.378;2023-02-28T12:43:13;8.80;39.50
76168;DHT22;64927;48.214;16.378;2023-02-28T12:52:29;8.70;38.80
76168;DHT22;64927;48.214;16.378;2023-02-28T12:55:25;8.80;39.10
76168;DHT22;64927;48.214;16.378;2023-02-28T12:58:11;9.00;38.40
76168;DHT22;64927;48.214;16.378;2023-02-28T13:01:14;8.90;38.40
76168;DHT22;64927;48.214;16.378;2023-02-28T13:11:49;8.60;39.00
76168;DHT22;64927;48.214;16.378;2023-02-28T13:22:03;8.60;37.90
76168;DHT22;64927;48.214;16.378;2023-02-28T13:24:53;8.50;37.50
76168;DHT22;64927;48.214;16.378;2023-02-28T13:27:32;8.50;38.70
76168;DHT22;64927;48.214;16.378;2023-02-28T13:30:01;8.50;38.10
76168;DHT22;64927;48.214;16.378;2023-02-28T13:32:33;8.50;38.20
76168;DHT22;64927;48.214;16.378;2023-02-28T13:39:52;8.50;38.00
76168;DHT22;64927;48.214;16.378;2023-02-28T13:47:29;8.70;38.30
76168;DHT22;64927;48.214;16.378;2023-02-28T13:52:52;8.70;38.20
76168;DHT22;64927;48.214;16.378;2023-02-28T13:58:01;8.70;37.40
76168;DHT22;64927;48.214;16.378;2023-02-28T14:00:43;8.60;37.80
76168;DHT22;64927;48.214;16.378;2023-02-28T14:06:33;8.60;38.40
76168;DHT22;64927;48.214;16.378;2023-02-28T14:11:51;8.70;38.50
76168;DHT22;64927;48.214;16.378;2023-02-28T14:17:04;8.60;38.80
76168;DHT22;64927;48.214;16.378;2023-02-28T14:19:32;8.60;39.20
76168;DHT22;64927;48.214;16.378;2023-02-28T14:22:32;8.60;39.40
76168;DHT22;64927;48.214;16.378;2023-02-28T14:31:18;8.30;40.60
76168;DHT22;64927;48.214;16.378;2023-02-28T14:36:43;8.10;41.50
76168;DHT22;64927;48.214;16.378;2023-02-28T14:39:24;8.00;41.20
76168;DHT22;64927;48.214;16.378;2023-02-28T14:41:50;7.90;41.70
76168;DHT22;64927;48.214;16.378;2023-02-28T14:44:24;7.90;41.60
76168;DHT22;64927;48.214;16.378;2023-02-28T14:46:59;7.70;41.90
76168;DHT22;64927;48.214;16.378;2023-02-28T14:49:35;7.60;42.10
76168;DHT22;64927;48.214;16.378;2023-02-28T14:54:38;7.60;42.30
76168;DHT22;64927;48.214;16.378;2023-02-28T14:57:04;7.60;42.70
76168;DHT22;64927;48.214;16.378;2023-02-28T14:59:34;7.70;42.70
76168;DHT22;64927;48.214;16.378;2023-02-28T15:02:30;7.70;42.80
76168;DHT22;64927;48.214;16.378;2023-02-28T15:05:16;7.70;42.70
76168;DHT22;64927;48.214;16.378;2023-02-28T15:07:48;7.60;42.70
76168;DHT22;64927;48.214;16.378;2023-02-28T15:10:26;7.50;42.90
76168;DHT22;64927;48.214;16.378;2023-02-28T15:16:03;7.40;43.20
76168;DHT22;64927;48.214;16.378;2023-02-28T15:21:34;7.50;43.60
76168;DHT22;64927;48.214;16.378;2023-02-28T15:24:06;7.70;43.50
76168;DHT22;64927;48.214;16.378;2023-02-28T15:26:41;7.60;43.50
76168;DHT22;64927;48.214;16.378;2023-02-28T15:29:21;7.70;43.40
76168;DHT22;64927;48.214;16.378;2023-02-28T15:31:51;7.70;43.10
76168;DHT22;64927;48.214;16.378;2023-02-28T15:34:24;7.70;43.50
76168;DHT22;64927;48.214;16.378;2023-02-28T15:36:52;7.60;43.10
76168;DHT22;64927;48.214;16.378;2023-02-28T15:39:21;7.50;43.70
76168;DHT22;64927;48.214;16.378;2023-02-28T15:41:50;7.40;43.50
76168;DHT22;64927;48.214;16.378;2023-02-28T15:44:26;7.40;43.60
76168;DHT22;64927;48.214;16.378;2023-02-28T15:47:01;7.40;43.50
76168;DHT22;64927;48.214;16.378;2023-02-28T15:49:29;7.50;43.30
76168;DHT22;64927;48.214;16.378;2023-02-28T15:51:59;7.50;42.90
76168;DHT22;64927;48.214;16.378;2023-02-28T15:54:32;7.50;43.10
76168;DHT22;64927;48.214;16.378;2023-02-28T15:57:18;7.50;42.70
76168;DHT22;64927;48.214;16.378;2023-02-28T15:59:51;7.40;42.10
76168;DHT22;64927;48.214;16.378;2023-02-28T16:02:21;7.40;42.20
76168;DHT22;64927;48.214;16.378;2023-02-28T16:07:32;7.40;43.50
76168;DHT22;64927;48.214;16.378;2023-02-28T16:09:59;7.40;43.70
76168;DHT22;64927;48.214;16.378;2023-02-28T16:12:27;7.30;43.60
76168;DHT22;64927;48.214;16.378;2023-02-28T16:14:55;7.30;43.80
76168;DHT22;64927;48.214;16.378;2023-02-28T16:17:24;7.20;44.90
76168;DHT22;64927;48.214;16.378;2023-02-28T16:19:50;7.20;44.30
76168;DHT22;64927;48.214;16.378;2023-02-28T16:22:16;7.30;44.40
76168;DHT22;64927;48.214;16.378;2023-02-28T16:24:42;7.20;44.40
76168;DHT22;64927;48.214;16.378;2023-02-28T16:27:20;7.20;44.40
76168;DHT22;64927;48.214;16.378;2023-02-28T16:29:47;7.20;44.50
76168;DHT22;64927;48.214;16.378;2023-02-28T16:32:15;7.20;44.60
76168;DHT22;64927;48.214;16.378;2023-02-28T16:34:42;7.10;44.50
76168;DHT22;64927;48.214;16.378;2023-02-28T16:37:13;7.10;44.60
76168;DHT22;64927;48.214;16.378;2023-02-28T16:39:40;7.10;44.70
76168;DHT22;64927;48.214;16.378;2023-02-28T16:42:10;7.10;44.80
76168;DHT22;64927;48.214;16.378;2023-02-28T16:44:38;7.10;44.70
76168;DHT22;64927;48.214;16.378;2023-02-28T16:47:05;7.10;44.80
76168;DHT22;64927;48.214;16.378;2023-02-28T16:49:31;7.10;44.80
76168;DHT22;64927;48.214;16.378;2023-02-28T16:51:57;7.10;44.60
76168;DHT22;64927;48.214;16.378;2023-02-28T16:54:23;7.10;44.40
76168;DHT22;64927;48.214;16.378;2023-02-28T16:56:49;7.10;44.50
76168;DHT22;64927;48.214;16.378;2023-02-28T16:59:24;7.10;44.50
76168;DHT22;64927;48.214;16.378;2023-02-28T17:01:53;7.10;44.70
76168;DHT22;64927;48.214;16.378;2023-02-28T17:04:19;7.00;44.60
76168;DHT22;64927;48.214;16.378;2023-02-28T17:06:46;7.10;44.50
76168;DHT22;64927;48.214;16.378;2023-02-28T17:09:17;7.10;44.70
76168;DHT22;64927;48.214;16.378;2023-02-28T17:11:44;7.00;44.80
76168;DHT22;64927;48.214;16.378;2023-02-28T17:14:10;7.10;44.70
76168;DHT22;64927;48.214;16.378;2023-02-28T17:16:36;7.10;44.70
76168;DHT22;64927;48.214;16.378;2023-02-28T17:19:10;7.10;44.80
76168;DHT22;64927;48.214;16.378;2023-02-28T17:21:37;7.10;44.70
76168;DHT22;64927;48.214;16.378;2023-02-28T17:24:03;7.20;44.70
76168;DHT22;64927;48.214;16.378;2023-02-28T17:26:29;7.20;44.50
76168;DHT22;64927;48.214;16.378;2023-02-28T17:28:57;7.20;44.30
76168;DHT22;64927;48.214;16.378;2023-02-28T17:31:25;7.10;44.40
76168;DHT22;64927;48.214;16.378;2023-02-28T17:33:52;7.20;44.60
76168;DHT22;64927;48.214;16.378;2023-02-28T17:36:23;7.20;44.80
76168;DHT22;64927;48.214;16.378;2023-02-28T17:38:51;7.20;44.70
76168;DHT22;64927;48.214;16.378;2023-02-28T17:41:17;7.20;44.60
76168;DHT22;64927;48.214;16.378;2023-02-28T17:43:43;7.20;44.60
76168;DHT22;64927;48.214;16.378;2023-02-28T17:46:29;7.10;44.90
76168;DHT22;64927;48.214;16.378;2023-02-28T17:48:55;7.10;45.30
76168;DHT22;64927;48.214;16.378;2023-02-28T17:51:22;7.00;45.30
76168;DHT22;64927;48.214;16.378;2023-02-28T17:53:48;7.00;45.20
76168;DHT22;64927;48.214;16.378;2023-02-28T17:56:22;7.00;45.50
76168;DHT22;64927;48.214;16.378;2023-02-28T17:58:50;6.90;45.50
76168;DHT22;64927;48.214;16.378;2023-02-28T18:01:16;7.00;45.50
76168;DHT22;64927;48.214;16.378;2023-02-28T18:03:42;6.80;44.90
76168;DHT22;64927;48.214;16.378;2023-02-28T18:06:37;6.80;45.00
76168;DHT22;64927;48.214;16.378;2023-02-28T18:09:17;6.70;45.00
76168;DHT22;64927;48.214;16.378;2023-02-28T18:11:44;6.60;45.10
76168;DHT22;64927;48.214;16.378;2023-02-28T18:14:17;6.50;45.30
76168;DHT22;64927;48.214;16.378;2023-02-28T18:16:44;6.60;45.30
76168;DHT22;64927;48.214;16.378;2023-02-28T18:19:13;6.50;45.20
76168;DHT22;64927;48.214;16.378;2023-02-28T18:21:47;6.60;45.30
76168;DHT22;64927;48.214;16.378;2023-02-28T18:24:15;6.50;45.20
76168;DHT22;64927;48.214;16.378;2023-02-28T18:26:42;6.50;45.20